createdAt,value
2019-03-26T00:01:24.542Z,9.63
2019-03-26T00:03:48.015Z,8.10
2019-03-26T00:06:11.437Z,8.77
2019-03-26T00:08:34.902Z,8.70
2019-03-26T00:10:58.337Z,9.00
2019-03-26T00:13:21.801Z,9.17
2019-03-26T00:15:45.226Z,9.10
2019-03-26T00:18:08.654Z,8.87
2019-03-26T00:20:32.130Z,9.60
2019-03-26T00:22:55.605Z,9.10
2019-03-26T00:25:19.029Z,10.30
2019-03-26T00:27:42.450Z,9.47
2019-03-26T00:30:06.860Z,8.90
2019-03-26T00:32:30.292Z,9.67
2019-03-26T00:34:53.718Z,10.00
2019-03-26T00:37:17.199Z,10.40
2019-03-26T00:39:40.674Z,10.23
2019-03-26T00:42:04.121Z,9.23
2019-03-26T00:44:27.543Z,9.23
2019-03-26T00:46:51.022Z,9.47
2019-03-26T00:49:14.762Z,9.73
2019-03-26T00:51:38.185Z,9.27
2019-03-26T00:54:01.738Z,9.00
2019-03-26T00:56:25.174Z,10.10
2019-03-26T00:58:48.647Z,10.00
2019-03-26T01:01:12.492Z,10.93
2019-03-26T01:03:36.117Z,10.90
2019-03-26T01:05:59.829Z,10.70
2019-03-26T01:08:23.597Z,11.57
2019-03-26T01:10:47.052Z,10.97
2019-03-26T01:13:10.521Z,11.70
2019-03-26T01:15:34.307Z,10.40
2019-03-26T01:17:57.776Z,11.93
2019-03-26T01:20:21.202Z,11.33
2019-03-26T01:22:44.686Z,11.00
2019-03-26T01:25:08.176Z,11.00
2019-03-26T01:27:31.636Z,11.50
2019-03-26T01:29:55.110Z,11.17
2019-03-26T01:32:18.535Z,12.10
2019-03-26T01:34:46.171Z,11.67
2019-03-26T01:37:07.209Z,12.10
2019-03-26T01:39:30.641Z,12.27
2019-03-26T01:41:54.063Z,12.10
2019-03-26T01:44:17.513Z,13.77
2019-03-26T01:46:40.950Z,13.60
2019-03-26T01:49:04.406Z,12.70
2019-03-26T01:51:27.841Z,10.90
2019-03-26T01:53:51.288Z,12.47
2019-03-26T01:56:14.765Z,11.77
2019-03-26T01:58:38.483Z,11.60
2019-03-26T02:01:01.938Z,11.37
2019-03-26T02:03:25.375Z,12.90
2019-03-26T02:05:48.853Z,11.73
2019-03-26T02:08:12.330Z,11.13
2019-03-26T02:10:35.770Z,11.90
2019-03-26T02:12:59.252Z,11.53
2019-03-26T02:15:29.841Z,12.07
2019-03-26T02:17:53.328Z,12.60
2019-03-26T02:20:17.113Z,13.60
2019-03-26T02:22:40.546Z,14.43
2019-03-26T02:25:04.752Z,12.97
2019-03-26T02:27:28.229Z,12.07
2019-03-26T02:29:51.991Z,11.63
2019-03-26T02:32:15.475Z,11.87
2019-03-26T02:34:38.915Z,12.80
2019-03-26T02:37:02.351Z,12.10
2019-03-26T02:39:26.148Z,12.67
2019-03-26T02:41:49.587Z,12.63
2019-03-26T02:44:13.073Z,12.40
2019-03-26T02:46:36.514Z,12.30
2019-03-26T02:48:59.990Z,13.50
2019-03-26T02:51:23.479Z,14.97
2019-03-26T02:53:46.914Z,15.23
2019-03-26T02:56:10.397Z,15.23
2019-03-26T02:58:33.828Z,16.03
2019-03-26T03:00:57.612Z,14.30
2019-03-26T03:03:21.387Z,14.33
2019-03-26T03:05:44.853Z,14.33
2019-03-26T03:08:08.343Z,14.17
2019-03-26T03:10:32.084Z,13.20
2019-03-26T03:12:55.543Z,13.77
2019-03-26T03:15:19.014Z,14.43
2019-03-26T03:17:42.778Z,14.60
2019-03-26T03:20:06.830Z,15.50
2019-03-26T03:22:30.239Z,15.87
2019-03-26T03:24:53.714Z,14.50
2019-03-26T03:27:17.203Z,15.73
2019-03-26T03:29:40.624Z,15.53
2019-03-26T03:32:04.183Z,14.43
2019-03-26T03:34:27.654Z,14.03
2019-03-26T03:36:51.103Z,14.77
2019-03-26T03:39:14.527Z,15.80
2019-03-26T03:41:38.193Z,14.77
2019-03-26T03:44:01.633Z,15.67
2019-03-26T03:46:25.104Z,14.93
2019-03-26T03:48:49.430Z,14.60
2019-03-26T03:51:16.278Z,14.60
2019-03-26T03:53:39.778Z,13.70
2019-03-26T03:56:03.629Z,13.87
2019-03-26T03:58:29.002Z,14.73
2019-03-26T04:00:52.488Z,14.10
2019-03-26T04:03:15.941Z,14.80
2019-03-26T04:05:39.483Z,14.33
2019-03-26T04:08:02.999Z,14.83
2019-03-26T04:10:26.425Z,14.57
2019-03-26T04:12:49.905Z,14.73
2019-03-26T04:15:13.339Z,16.60
2019-03-26T04:17:36.820Z,14.60
2019-03-26T04:20:00.526Z,15.53
2019-03-26T04:22:24.465Z,14.83
2019-03-26T04:24:47.890Z,14.43
2019-03-26T04:27:11.607Z,14.40
2019-03-26T04:29:35.081Z,14.70
2019-03-26T04:31:58.630Z,13.80
2019-03-26T04:34:22.782Z,15.33
2019-03-26T04:36:46.262Z,13.97
2019-03-26T04:39:09.720Z,14.50
2019-03-26T04:41:33.280Z,14.93
2019-03-26T04:43:56.707Z,14.60
2019-03-26T04:46:20.183Z,15.17
2019-03-26T04:48:43.613Z,14.33
2019-03-26T04:51:07.088Z,15.03
2019-03-26T04:53:30.566Z,16.50
2019-03-26T04:55:53.994Z,21.80
2019-03-26T04:58:17.479Z,20.30
2019-03-26T05:00:40.946Z,19.37
2019-03-26T05:03:04.389Z,19.53
2019-03-26T05:05:27.822Z,18.23
2019-03-26T05:07:51.629Z,17.57
2019-03-26T05:10:15.199Z,16.53
2019-03-26T05:12:38.624Z,16.17
2019-03-26T05:15:02.088Z,15.97
2019-03-26T05:17:25.535Z,15.60
2019-03-26T05:19:48.962Z,14.53
2019-03-26T05:22:23.511Z,13.90
2019-03-26T05:24:37.589Z,14.20
2019-03-26T05:27:01.044Z,13.50
2019-03-26T05:29:24.567Z,13.33
2019-03-26T05:31:48.016Z,13.17
2019-03-26T05:34:11.489Z,15.33
2019-03-26T05:36:34.926Z,13.78
2019-03-26T05:38:58.349Z,14.53
2019-03-26T05:41:21.896Z,14.90
2019-03-26T05:43:45.319Z,15.53
2019-03-26T05:46:08.795Z,15.20
2019-03-26T05:48:32.223Z,15.47
2019-03-26T05:50:55.697Z,13.60
2019-03-26T05:53:19.123Z,11.20
2019-03-26T05:55:42.558Z,12.03
2019-03-26T05:58:06.042Z,13.10
2019-03-26T06:00:29.468Z,13.57
2019-03-26T06:02:53.274Z,12.97
2019-03-26T06:05:16.702Z,12.20
2019-03-26T06:07:40.177Z,12.80
2019-03-26T06:10:05.594Z,13.10
2019-03-26T06:12:29.054Z,12.27
2019-03-26T06:14:52.478Z,11.10
2019-03-26T06:17:15.956Z,10.80
2019-03-26T06:19:39.681Z,10.33
2019-03-26T06:22:03.155Z,10.87
2019-03-26T06:24:26.582Z,10.30
2019-03-26T06:26:50.057Z,8.80
2019-03-26T06:29:13.536Z,9.37
2019-03-26T06:31:36.969Z,11.00
2019-03-26T06:34:00.385Z,9.97
2019-03-26T06:36:24.146Z,8.07
2019-03-26T06:38:47.568Z,7.30
2019-03-26T06:41:10.996Z,7.47
2019-03-26T06:43:34.442Z,5.80
2019-03-26T06:45:57.872Z,5.80
2019-03-26T06:48:21.340Z,5.10
2019-03-26T06:50:44.772Z,7.03
2019-03-26T06:53:08.246Z,7.03
2019-03-26T06:55:31.675Z,6.80
2019-03-26T06:57:55.149Z,6.73
2019-03-26T07:00:21.628Z,6.63
2019-03-26T07:02:45.115Z,5.57
2019-03-26T07:05:08.933Z,7.00
2019-03-26T07:07:33.928Z,6.40
2019-03-26T07:09:57.400Z,5.53
2019-03-26T07:12:20.829Z,5.77
2019-03-26T07:14:44.373Z,5.57
2019-03-26T07:17:07.807Z,6.47
2019-03-26T07:19:31.283Z,6.87
2019-03-26T07:21:54.767Z,6.20
2019-03-26T07:24:18.192Z,5.67
2019-03-26T07:26:41.639Z,4.73
2019-03-26T07:29:05.114Z,5.60
2019-03-26T07:31:28.591Z,6.03
2019-03-26T07:33:52.013Z,5.40
2019-03-26T07:36:15.464Z,5.00
2019-03-26T07:38:38.890Z,5.87
2019-03-26T07:41:02.368Z,4.73
2019-03-26T07:43:25.827Z,4.03
2019-03-26T07:45:49.245Z,3.63
2019-03-26T07:48:12.670Z,3.63
2019-03-26T07:50:36.143Z,4.00
2019-03-26T07:52:59.613Z,3.97
2019-03-26T07:55:23.085Z,3.33
2019-03-26T07:57:46.538Z,3.70
2019-03-26T08:00:11.401Z,3.30
2019-03-26T08:02:34.873Z,2.97
2019-03-26T08:04:58.358Z,3.33
2019-03-26T08:07:21.777Z,3.23
2019-03-26T08:09:45.250Z,3.63
2019-03-26T08:12:08.688Z,3.17
2019-03-26T08:14:32.111Z,3.87
2019-03-26T08:16:55.601Z,3.80
2019-03-26T08:19:19.007Z,3.60
2019-03-26T08:21:42.481Z,3.50
2019-03-26T08:24:05.906Z,4.00
2019-03-26T08:26:29.425Z,3.60
2019-03-26T08:28:52.889Z,3.60
2019-03-26T08:31:16.321Z,3.50
2019-03-26T08:33:39.739Z,4.27
2019-03-26T08:36:03.210Z,3.60
2019-03-26T08:38:26.679Z,3.93
2019-03-26T08:40:50.104Z,4.00
2019-03-26T08:43:13.533Z,4.07
2019-03-26T08:45:37.025Z,3.43
2019-03-26T08:48:00.719Z,4.03
2019-03-26T08:50:24.133Z,3.65
2019-03-26T08:52:47.613Z,3.23
2019-03-26T08:55:11.826Z,3.20
2019-03-26T08:57:35.251Z,3.57
2019-03-26T08:59:58.706Z,3.40
2019-03-26T09:02:22.399Z,3.27
2019-03-26T09:04:45.870Z,2.60
2019-03-26T09:07:11.079Z,3.40
2019-03-26T09:09:34.492Z,2.77
2019-03-26T09:11:57.917Z,3.33
2019-03-26T09:14:21.363Z,2.90
2019-03-26T09:16:44.826Z,3.07
2019-03-26T09:19:08.297Z,3.17
2019-03-26T09:21:32.773Z,3.00
2019-03-26T09:23:56.258Z,3.23
2019-03-26T09:26:19.686Z,2.63
2019-03-26T09:28:43.134Z,3.10
2019-03-26T09:31:06.590Z,3.00
2019-03-26T09:33:30.068Z,2.80
2019-03-26T09:35:53.488Z,2.73
2019-03-26T09:38:16.927Z,2.97
2019-03-26T09:40:40.405Z,2.90
2019-03-26T09:43:03.820Z,2.60
2019-03-26T09:45:27.294Z,2.30
2019-03-26T09:47:50.715Z,2.83
2019-03-26T09:50:14.778Z,2.90
2019-03-26T09:52:38.330Z,2.90
2019-03-26T09:55:01.756Z,3.07
2019-03-26T09:57:25.178Z,2.90
2019-03-26T09:59:48.628Z,2.30
2019-03-26T10:02:12.087Z,3.10
2019-03-26T10:04:35.507Z,2.60
2019-03-26T10:06:58.952Z,2.40
2019-03-26T10:09:22.428Z,3.97
2019-03-26T10:11:45.862Z,3.10
2019-03-26T10:14:09.343Z,2.90
2019-03-26T10:16:32.798Z,2.33
2019-03-26T10:18:56.269Z,3.13
2019-03-26T10:21:19.701Z,2.57
2019-03-26T10:23:43.181Z,2.30
2019-03-26T10:26:06.693Z,4.50
2019-03-26T10:28:30.111Z,2.57
2019-03-26T10:30:53.681Z,2.70
2019-03-26T10:33:17.479Z,2.70
2019-03-26T10:35:40.909Z,3.23
2019-03-26T10:38:05.116Z,3.30
2019-03-26T10:40:36.759Z,3.47
2019-03-26T10:43:01.316Z,3.60
2019-03-26T10:45:24.778Z,2.70
2019-03-26T10:47:48.205Z,2.43
2019-03-26T10:50:11.921Z,2.73
2019-03-26T10:52:35.400Z,2.80
2019-03-26T10:54:58.903Z,2.30
2019-03-26T10:57:22.335Z,2.20
2019-03-26T10:59:45.813Z,2.30
2019-03-26T11:02:09.236Z,2.77
2019-03-26T11:04:32.705Z,2.17
2019-03-26T11:06:56.167Z,2.10
2019-03-26T11:09:25.586Z,2.50
2019-03-26T11:11:44.795Z,2.50
2019-03-26T11:14:08.223Z,2.47
2019-03-26T11:16:31.695Z,2.13
2019-03-26T11:18:55.463Z,2.23
2019-03-26T11:21:19.103Z,2.60
2019-03-26T11:23:44.102Z,2.90
2019-03-26T11:26:07.650Z,2.67
2019-03-26T11:28:31.070Z,2.37
2019-03-26T11:30:54.551Z,2.50
2019-03-26T11:33:17.981Z,2.93
2019-03-26T11:35:41.489Z,3.07
2019-03-26T11:38:04.965Z,2.40
2019-03-26T11:40:28.395Z,2.67
2019-03-26T11:42:51.871Z,2.80
2019-03-26T11:45:16.003Z,2.70
2019-03-26T11:47:40.168Z,2.93
2019-03-26T11:50:04.867Z,3.10
2019-03-26T11:52:28.414Z,2.80
2019-03-26T11:54:51.888Z,2.77
2019-03-26T11:57:15.355Z,2.70
2019-03-26T11:59:38.783Z,3.00
2019-03-26T12:02:02.268Z,2.53
2019-03-26T12:04:25.693Z,2.90
2019-03-26T12:06:49.145Z,2.80
2019-03-26T12:09:12.690Z,2.53
2019-03-26T12:11:36.258Z,2.30
2019-03-26T12:13:59.689Z,2.43
2019-03-26T12:16:23.149Z,2.43
2019-03-26T12:18:46.638Z,2.23
2019-03-26T12:21:10.107Z,3.10
2019-03-26T12:23:33.534Z,2.60
2019-03-26T12:25:56.985Z,3.20
2019-03-26T12:28:20.413Z,3.37
2019-03-26T12:30:43.888Z,3.00
2019-03-26T12:33:08.182Z,3.00
2019-03-26T12:35:31.749Z,2.93
2019-03-26T12:37:55.222Z,2.30
2019-03-26T12:40:18.656Z,2.73
2019-03-26T12:42:42.194Z,2.30
2019-03-26T12:45:08.809Z,2.57
2019-03-26T12:47:32.279Z,2.97
2019-03-26T12:49:56.019Z,2.63
2019-03-26T12:52:19.521Z,3.07
2019-03-26T12:54:42.967Z,3.40
2019-03-26T12:57:06.513Z,2.97
2019-03-26T12:59:29.937Z,2.77
2019-03-26T13:01:53.421Z,3.23
2019-03-26T13:04:16.992Z,2.87
2019-03-26T13:06:40.352Z,2.70
2019-03-26T13:09:05.347Z,3.33
2019-03-26T13:11:28.817Z,2.73
2019-03-26T13:13:52.243Z,3.03
2019-03-26T13:16:15.669Z,3.03
2019-03-26T13:18:39.140Z,3.10
2019-03-26T13:21:02.626Z,3.37
2019-03-26T13:23:26.060Z,3.23
2019-03-26T13:25:49.480Z,2.80
2019-03-26T13:28:12.921Z,3.03
2019-03-26T13:30:36.352Z,3.27
2019-03-26T13:32:59.878Z,2.97
2019-03-26T13:35:23.233Z,3.07
2019-03-26T13:37:46.675Z,2.97
2019-03-26T13:40:10.541Z,3.10
2019-03-26T13:42:34.006Z,2.83
2019-03-26T13:44:57.446Z,3.00
2019-03-26T13:47:20.906Z,3.23
2019-03-26T13:49:44.364Z,3.00
2019-03-26T13:52:07.787Z,2.70
2019-03-26T13:54:31.247Z,3.10
2019-03-26T13:56:54.701Z,3.70
2019-03-26T13:59:18.166Z,3.30
2019-03-26T14:01:41.591Z,3.00
2019-03-26T14:04:05.061Z,2.90
2019-03-26T14:06:28.806Z,3.67
2019-03-26T14:08:52.276Z,3.67
2019-03-26T14:11:15.702Z,2.73
2019-03-26T14:13:39.202Z,3.37
2019-03-26T14:16:02.585Z,2.80
2019-03-26T14:18:26.039Z,3.27
2019-03-26T14:20:49.500Z,3.20
2019-03-26T14:23:13.257Z,3.80
2019-03-26T14:25:36.683Z,3.33
2019-03-26T14:28:00.487Z,3.40
2019-03-26T14:30:35.411Z,3.53
2019-03-26T14:32:58.878Z,3.00
2019-03-26T14:35:22.299Z,3.50
2019-03-26T14:37:51.608Z,3.57
2019-03-26T14:40:11.130Z,3.30
2019-03-26T14:42:34.552Z,3.33
2019-03-26T14:45:00.517Z,3.30
2019-03-26T14:47:23.186Z,3.27
2019-03-26T14:49:46.649Z,3.27
2019-03-26T14:52:10.070Z,3.30
2019-03-26T14:54:33.530Z,3.40
2019-03-26T14:56:56.997Z,3.27
2019-03-26T14:59:20.421Z,2.70
2019-03-26T15:01:43.885Z,2.63
2019-03-26T15:04:07.414Z,3.00
2019-03-26T15:06:31.149Z,2.80
2019-03-26T15:08:54.579Z,2.93
2019-03-26T15:11:18.059Z,2.80
2019-03-26T15:13:41.504Z,3.57
2019-03-26T15:16:04.929Z,2.90
2019-03-26T15:18:28.379Z,3.37
2019-03-26T15:20:51.850Z,3.00
2019-03-26T15:23:15.589Z,4.27
2019-03-26T15:25:39.061Z,2.97
2019-03-26T15:28:02.825Z,2.90
2019-03-26T15:30:26.241Z,2.77
2019-03-26T15:32:49.707Z,3.00
2019-03-26T15:35:13.404Z,2.93
2019-03-26T15:37:36.852Z,2.60
2019-03-26T15:40:00.377Z,2.43
2019-03-26T15:42:23.805Z,2.57
2019-03-26T15:44:47.255Z,2.13
2019-03-26T15:47:10.679Z,2.02
2019-03-26T15:49:34.125Z,4.63
2019-03-26T15:51:57.589Z,3.90
2019-03-26T15:54:21.047Z,2.80
2019-03-26T15:56:44.469Z,2.20
2019-03-26T15:59:07.931Z,2.50
2019-03-26T16:01:31.355Z,2.27
2019-03-26T16:03:54.817Z,2.40
2019-03-26T16:06:18.237Z,3.00
2019-03-26T16:08:41.702Z,3.07
2019-03-26T16:11:05.192Z,2.27
2019-03-26T16:13:28.652Z,3.13
2019-03-26T16:15:52.077Z,3.60
2019-03-26T16:18:15.494Z,2.90
2019-03-26T16:20:38.964Z,3.17
2019-03-26T16:23:02.416Z,2.20
2019-03-26T16:25:25.912Z,2.77
2019-03-26T16:27:49.302Z,3.80
2019-03-26T16:30:13.357Z,2.60
2019-03-26T16:32:36.840Z,2.57
2019-03-26T16:35:00.369Z,2.47
2019-03-26T16:37:23.742Z,2.93
2019-03-26T16:39:47.200Z,2.63
2019-03-26T16:42:10.663Z,4.00
2019-03-26T16:44:34.080Z,2.60
2019-03-26T16:46:57.790Z,2.57
2019-03-26T16:49:21.243Z,3.20
2019-03-26T16:51:44.710Z,3.20
2019-03-26T16:54:08.153Z,2.50
2019-03-26T16:56:31.613Z,2.97
2019-03-26T16:58:55.069Z,4.40
2019-03-26T17:01:18.530Z,4.93
2019-03-26T17:03:41.996Z,2.30
2019-03-26T17:06:05.485Z,3.00
2019-03-26T17:08:29.022Z,2.30
2019-03-26T17:10:52.442Z,4.23
2019-03-26T17:13:15.895Z,4.60
2019-03-26T17:15:39.311Z,4.00
2019-03-26T17:18:02.759Z,5.13
2019-03-26T17:20:26.180Z,4.13
2019-03-26T17:22:49.629Z,3.57
2019-03-26T17:25:13.326Z,2.80
2019-03-26T17:27:36.743Z,2.97
2019-03-26T17:30:00.400Z,3.37
2019-03-26T17:32:23.791Z,2.80
2019-03-26T17:34:47.213Z,3.80
2019-03-26T17:37:10.631Z,4.93
2019-03-26T17:39:34.101Z,7.80
2019-03-26T17:41:57.566Z,7.77
2019-03-26T17:44:20.994Z,5.13
2019-03-26T17:46:44.540Z,4.63
2019-03-26T17:49:07.997Z,4.20
2019-03-26T17:51:31.417Z,3.60
2019-03-26T17:53:54.873Z,2.97
2019-03-26T17:56:18.461Z,3.10
2019-03-26T17:58:42.005Z,3.00
2019-03-26T18:01:05.905Z,2.80
2019-03-26T18:03:29.355Z,5.57
2019-03-26T18:05:53.663Z,4.97
2019-03-26T18:08:17.122Z,3.50
2019-03-26T18:10:40.580Z,3.10
2019-03-26T18:13:04.004Z,4.33
2019-03-26T18:15:27.426Z,3.67
2019-03-26T18:17:51.014Z,4.70
2019-03-26T18:20:14.545Z,3.50
2019-03-26T18:22:38.015Z,4.33
2019-03-26T18:25:01.651Z,3.60
2019-03-26T18:27:25.072Z,4.00
2019-03-26T18:29:48.488Z,5.57
2019-03-26T18:32:11.959Z,5.20
2019-03-26T18:34:35.381Z,5.93
2019-03-26T18:36:58.805Z,6.50
2019-03-26T18:39:22.265Z,7.43
2019-03-26T18:41:45.973Z,5.20
2019-03-26T18:44:09.438Z,5.13
2019-03-26T18:46:32.857Z,5.43
2019-03-26T18:48:56.316Z,5.47
2019-03-26T18:51:19.739Z,5.00
2019-03-26T18:53:43.207Z,5.33
2019-03-26T18:56:06.718Z,4.95
2019-03-26T18:58:30.135Z,5.70
2019-03-26T19:00:53.596Z,4.87
2019-03-26T19:03:17.340Z,4.97
2019-03-26T19:05:40.894Z,6.03
2019-03-26T19:08:04.380Z,4.67
2019-03-26T19:10:32.476Z,4.70
2019-03-26T19:12:57.071Z,6.20
2019-03-26T19:15:20.866Z,5.73
2019-03-26T19:17:44.290Z,7.43
2019-03-26T19:20:07.784Z,6.67
2019-03-26T19:22:31.247Z,5.57
2019-03-26T19:24:54.667Z,6.80
2019-03-26T19:27:18.086Z,6.27
2019-03-26T19:29:41.542Z,6.30
2019-03-26T19:32:05.144Z,6.50
2019-03-26T19:34:28.562Z,6.93
2019-03-26T19:36:52.019Z,6.67
2019-03-26T19:39:15.490Z,6.93
2019-03-26T19:41:38.990Z,6.60
2019-03-26T19:44:02.413Z,7.17
2019-03-26T19:46:25.860Z,7.00
2019-03-26T19:48:49.325Z,7.17
2019-03-26T19:51:12.813Z,7.80
2019-03-26T19:53:36.258Z,7.40
2019-03-26T19:55:59.713Z,7.93
2019-03-26T19:58:23.176Z,8.00
2019-03-26T20:00:46.596Z,8.07
2019-03-26T20:03:10.074Z,8.00
2019-03-26T20:05:35.388Z,7.97
2019-03-26T20:07:58.668Z,7.87
2019-03-26T20:10:22.166Z,8.50
2019-03-26T20:12:45.778Z,8.43
2019-03-26T20:15:10.787Z,8.80
2019-03-26T20:17:34.204Z,9.33
2019-03-26T20:19:57.668Z,8.77
2019-03-26T20:22:21.090Z,10.03
2019-03-26T20:24:47.213Z,9.10
2019-03-26T20:27:10.636Z,9.27
2019-03-26T20:29:34.093Z,9.27
2019-03-26T20:31:57.559Z,10.03
2019-03-26T20:34:21.006Z,9.37
2019-03-26T20:36:44.465Z,8.40
2019-03-26T20:39:08.409Z,8.83
2019-03-26T20:41:31.880Z,8.68
2019-03-26T20:43:55.774Z,8.83
2019-03-26T20:46:19.193Z,9.07
2019-03-26T20:48:42.645Z,8.90
2019-03-26T20:51:06.061Z,9.13
2019-03-26T20:53:29.504Z,9.57
2019-03-26T20:55:54.586Z,9.90
2019-03-26T20:58:18.108Z,8.90
2019-03-26T21:00:42.165Z,9.33
2019-03-26T21:03:05.972Z,9.20
2019-03-26T21:05:29.393Z,10.00
2019-03-26T21:07:52.842Z,9.87
2019-03-26T21:10:16.289Z,9.60
2019-03-26T21:12:39.752Z,9.30
2019-03-26T21:15:03.348Z,10.43
2019-03-26T21:17:26.801Z,9.73
2019-03-26T21:19:50.228Z,11.27
2019-03-26T21:22:13.689Z,10.77
2019-03-26T21:24:37.119Z,10.70
2019-03-26T21:27:00.583Z,11.17
2019-03-26T21:29:24.004Z,10.83
2019-03-26T21:31:47.427Z,10.30
2019-03-26T21:34:10.893Z,11.40
2019-03-26T21:36:34.328Z,11.47
2019-03-26T21:38:57.801Z,11.43
2019-03-26T21:41:21.264Z,12.53
2019-03-26T21:43:44.725Z,12.23
2019-03-26T21:46:08.156Z,10.83
2019-03-26T21:48:31.618Z,12.30
2019-03-26T21:50:55.049Z,12.17
2019-03-26T21:53:18.518Z,11.70
2019-03-26T21:55:41.995Z,13.50
2019-03-26T21:58:05.417Z,12.37
2019-03-26T22:00:28.848Z,13.63
2019-03-26T22:02:52.322Z,12.77
2019-03-26T22:05:15.993Z,13.67
2019-03-26T22:07:39.450Z,13.57
2019-03-26T22:10:02.880Z,13.87
2019-03-26T22:12:26.395Z,12.97
2019-03-26T22:14:49.867Z,13.53
2019-03-26T22:17:13.601Z,14.03
2019-03-26T22:19:37.377Z,12.67
2019-03-26T22:22:01.351Z,13.33
2019-03-26T22:24:24.781Z,14.73
2019-03-26T22:26:48.223Z,14.73
2019-03-26T22:29:11.648Z,13.90
2019-03-26T22:31:35.113Z,14.57
2019-03-26T22:33:58.571Z,14.23
2019-03-26T22:36:22.044Z,13.83
2019-03-26T22:38:45.461Z,14.73
2019-03-26T22:41:08.974Z,14.53
2019-03-26T22:43:32.395Z,15.33
2019-03-26T22:45:55.819Z,16.93
2019-03-26T22:48:19.287Z,15.57
2019-03-26T22:50:42.719Z,16.70
2019-03-26T22:53:06.145Z,13.63
2019-03-26T22:55:29.606Z,16.50
2019-03-26T22:57:53.086Z,12.57
2019-03-26T23:00:19.017Z,16.37
2019-03-26T23:02:42.479Z,15.23
2019-03-26T23:05:07.789Z,10.27
2019-03-26T23:07:31.219Z,9.17
2019-03-26T23:09:54.918Z,10.73
2019-03-26T23:12:18.343Z,10.87
2019-03-26T23:14:45.257Z,11.70
2019-03-26T23:17:06.991Z,11.33
2019-03-26T23:19:30.699Z,11.17
2019-03-26T23:21:54.162Z,10.33
2019-03-26T23:24:17.585Z,10.90
2019-03-26T23:26:41.017Z,11.40
2019-03-26T23:29:07.793Z,11.77
2019-03-26T23:31:29.942Z,11.33
2019-03-26T23:33:53.407Z,11.60
2019-03-26T23:36:16.835Z,11.87
2019-03-26T23:38:40.292Z,11.27
2019-03-26T23:41:03.829Z,11.27
2019-03-26T23:43:27.602Z,11.43
2019-03-26T23:45:51.071Z,11.40
2019-03-26T23:48:14.495Z,10.83
2019-03-26T23:50:37.947Z,11.00
2019-03-26T23:53:01.406Z,11.17
2019-03-26T23:55:24.830Z,12.00
2019-03-26T23:57:48.305Z,11.37
